sensor_id;sensor_type;location;lat;lon;timestamp;pressure;altitude;pressure_sealevel;temperature;humidity
55301;BME280;58302;51.446;-2.000;2023-02-13T00:01:22;102595.88;;;6.27;100.00
55301;BME280;58302;51.446;-2.000;2023-02-13T00:03:48;102599.56;;;6.26;100.00
55301;BME280;58302;51.446;-2.000;2023-02-13T00:06:14;102588.22;;;6.30;100.00
55301;BME280;58302;51.446;-2.000;2023-02-13T00:08:40;102602.94;;;6.28;100.00
55301;BME280;58302;51.446;-2.000;2023-02-13T00:11:06;102593.81;;;6.29;100.00
55301;BME280;58302;51.446;-2.000;2023-02-13T00:13:33;102589.25;;;6.29;100.00
55301;BME280;58302;51.446;-2.000;2023-02-13T00:16:02;102581.16;;;6.29;100.00
55301;BME280;58302;51.446;-2.000;2023-02-13T00:18:28;102591.59;;;6.32;100.00
55301;BME280;58302;51.446;-2.000;2023-02-13T00:23:29;102585.50;;;6.30;100.00
55301;BME280;58302;51.446;-2.000;2023-02-13T00:25:56;102578.84;;;6.26;100.00
55301;BME280;58302;51.446;-2.000;2023-02-13T00:28:22;102584.69;;;6.30;100.00
55301;BME280;58302;51.446;-2.000;2023-02-13T00:30:48;102589.78;;;6.25;100.00
55301;BME280;58302;51.446;-2.000;2023-02-13T00:33:14;102580.66;;;6.26;100.00
55301;BME280;58302;51.446;-2.000;2023-02-13T00:35:40;102578.84;;;6.26;100.00
55301;BME280;58302;51.446;-2.000;2023-02-13T00:38:06;102578.16;;;6.24;100.00
55301;BME280;58302;51.446;-2.000;2023-02-13T00:40:32;102576.28;;;6.25;100.00
55301;BME280;58302;51.446;-2.000;2023-02-13T00:42:58;102574.28;;;6.27;100.00
55301;BME280;58302;51.446;-2.000;2023-02-13T00:45:24;102583.84;;;6.29;100.00
55301;BME280;58302;51.446;-2.000;2023-02-13T00:47:50;102575.56;;;6.31;100.00
55301;BME280;58302;51.446;-2.000;2023-02-13T00:50:16;102572.50;;;6.34;100.00
55301;BME280;58302;51.446;-2.000;2023-02-13T00:52:42;102562.25;;;6.29;100.00
55301;BME280;58302;51.446;-2.000;2023-02-13T00:55:08;102565.34;;;6.26;100.00
55301;BME280;58302;51.446;-2.000;2023-02-13T00:57:34;102562.72;;;6.33;100.00
55301;BME280;58302;51.446;-2.000;2023-02-13T01:00:00;102564.19;;;6.36;100.00
55301;BME280;58302;51.446;-2.000;2023-02-13T01:02:27;102557.47;;;6.31;100.00
55301;BME280;58302;51.446;-2.000;2023-02-13T01:04:52;102566.44;;;6.32;100.00
55301;BME280;58302;51.446;-2.000;2023-02-13T01:07:18;102560.19;;;6.31;100.00
55301;BME280;58302;51.446;-2.000;2023-02-13T01:09:44;102560.38;;;6.30;100.00
55301;BME280;58302;51.446;-2.000;2023-02-13T01:12:10;102551.44;;;6.29;100.00
55301;BME280;58302;51.446;-2.000;2023-02-13T01:14:36;102550.41;;;6.30;100.00
55301;BME280;58302;51.446;-2.000;2023-02-13T01:17:02;102548.09;;;6.27;100.00
55301;BME280;58302;51.446;-2.000;2023-02-13T01:19:28;102558.72;;;6.29;100.00
55301;BME280;58302;51.446;-2.000;2023-02-13T01:21:54;102560.38;;;6.30;100.00
55301;BME280;58302;51.446;-2.000;2023-02-13T01:24:20;102561.41;;;6.29;100.00
55301;BME280;58302;51.446;-2.000;2023-02-13T01:29:18;102547.44;;;6.25;100.00
55301;BME280;58302;51.446;-2.000;2023-02-13T01:31:44;102556.38;;;6.26;100.00
55301;BME280;58302;51.446;-2.000;2023-02-13T01:34:10;102560.94;;;6.25;100.00
55301;BME280;58302;51.446;-2.000;2023-02-13T01:36:35;102550.59;;;6.29;100.00
55301;BME280;58302;51.446;-2.000;2023-02-13T01:39:02;102547.63;;;6.24;100.00
55301;BME280;58302;51.446;-2.000;2023-02-13T01:41:28;102557.69;;;6.30;100.00
55301;BME280;58302;51.446;-2.000;2023-02-13T01:43:57;102557.69;;;6.30;100.00
55301;BME280;58302;51.446;-2.000;2023-02-13T01:46:38;102553.84;;;6.24;100.00
55301;BME280;58302;51.446;-2.000;2023-02-13T01:49:24;102571.28;;;6.22;100.00
55301;BME280;58302;51.446;-2.000;2023-02-13T01:51:53;102577.03;;;6.19;100.00
55301;BME280;58302;51.446;-2.000;2023-02-13T01:54:24;102574.13;;;6.20;100.00
55301;BME280;58302;51.446;-2.000;2023-02-13T01:57:08;102565.50;;;6.25;100.00
55301;BME280;58302;51.446;-2.000;2023-02-13T01:59:53;102568.38;;;6.23;100.00
55301;BME280;58302;51.446;-2.000;2023-02-13T02:02:21;102567.34;;;6.24;100.00
55301;BME280;58302;51.446;-2.000;2023-02-13T02:04:47;102561.31;;;6.22;100.00
55301;BME280;58302;51.446;-2.000;2023-02-13T02:07:19;102568.19;;;6.25;100.00
55301;BME280;58302;51.446;-2.000;2023-02-13T02:09:46;102562.16;;;6.23;100.00
55301;BME280;58302;51.446;-2.000;2023-02-13T02:12:24;102556.28;;;6.19;100.00
55301;BME280;58302;51.446;-2.000;2023-02-13T02:14:52;102566.88;;;6.21;100.00
55301;BME280;58302;51.446;-2.000;2023-02-13T02:17:20;102568.44;;;6.15;100.00
55301;BME280;58302;51.446;-2.000;2023-02-13T02:40:01;102537.44;;;5.96;100.00
55301;BME280;58302;51.446;-2.000;2023-02-13T02:45:47;102536.63;;;5.88;100.00
55301;BME280;58302;51.446;-2.000;2023-02-13T02:48:29;102538.50;;;5.87;100.00
55301;BME280;58302;51.446;-2.000;2023-02-13T02:51:27;102533.78;;;5.89;100.00
55301;BME280;58302;51.446;-2.000;2023-02-13T02:56:51;102542.91;;;5.88;100.00
55301;BME280;58302;51.446;-2.000;2023-02-13T02:59:19;102542.03;;;5.88;100.00
55301;BME280;58302;51.446;-2.000;2023-02-13T03:02:07;102532.44;;;5.85;100.00
55301;BME280;58302;51.446;-2.000;2023-02-13T03:04:55;102537.00;;;5.85;100.00
55301;BME280;58302;51.446;-2.000;2023-02-13T03:07:42;102528.09;;;5.84;100.00
55301;BME280;58302;51.446;-2.000;2023-02-13T03:10:14;102536.19;;;5.84;100.00
55301;BME280;58302;51.446;-2.000;2023-02-13T03:13:12;102532.66;;;5.84;100.00
55301;BME280;58302;51.446;-2.000;2023-02-13T03:15:51;102532.81;;;5.82;100.00
55301;BME280;58302;51.446;-2.000;2023-02-13T03:18:38;102534.84;;;5.80;100.00
55301;BME280;58302;51.446;-2.000;2023-02-13T03:21:53;102536.91;;;5.78;100.00
55301;BME280;58302;51.446;-2.000;2023-02-13T03:33:00;102525.81;;;5.73;100.00
55301;BME280;58302;51.446;-2.000;2023-02-13T03:35:44;102520.44;;;5.73;100.00
55301;BME280;58302;51.446;-2.000;2023-02-13T03:38:45;102514.19;;;5.72;100.00
55301;BME280;58302;51.446;-2.000;2023-02-13T03:41:20;102512.97;;;5.75;100.00
55301;BME280;58302;51.446;-2.000;2023-02-13T03:44:01;102517.88;;;5.71;100.00
55301;BME280;58302;51.446;-2.000;2023-02-13T03:46:34;102516.59;;;5.67;100.00
55301;BME280;58302;51.446;-2.000;2023-02-13T03:49:03;102517.44;;;5.68;100.00
55301;BME280;58302;51.446;-2.000;2023-02-13T03:52:22;102512.22;;;5.66;100.00
55301;BME280;58302;51.446;-2.000;2023-02-13T03:54:57;102517.78;;;5.65;100.00
55301;BME280;58302;51.446;-2.000;2023-02-13T03:57:44;102515.09;;;5.65;100.00
55301;BME280;58302;51.446;-2.000;2023-02-13T04:00:43;102519.28;;;5.67;100.00
55301;BME280;58302;51.446;-2.000;2023-02-13T04:06:12;102528.13;;;5.61;100.00
55301;BME280;58302;51.446;-2.000;2023-02-13T04:08:38;102535.78;;;5.72;100.00
55301;BME280;58302;51.446;-2.000;2023-02-13T04:14:16;102530.63;;;5.63;100.00
55301;BME280;58302;51.446;-2.000;2023-02-13T04:16:46;102535.19;;;5.62;100.00
55301;BME280;58302;51.446;-2.000;2023-02-13T04:19:15;102532.09;;;5.65;100.00
55301;BME280;58302;51.446;-2.000;2023-02-13T04:21:41;102537.69;;;5.64;100.00
55301;BME280;58302;51.446;-2.000;2023-02-13T04:24:08;102537.88;;;5.62;100.00
55301;BME280;58302;51.446;-2.000;2023-02-13T04:26:37;102540.78;;;5.61;100.00
55301;BME280;58302;51.446;-2.000;2023-02-13T04:29:04;102535.53;;;5.59;100.00
55301;BME280;58302;51.446;-2.000;2023-02-13T04:31:30;102532.50;;;5.62;100.00
55301;BME280;58302;51.446;-2.000;2023-02-13T04:33:56;102535.00;;;5.64;100.00
55301;BME280;58302;51.446;-2.000;2023-02-13T04:36:22;102535.19;;;5.62;100.00
55301;BME280;58302;51.446;-2.000;2023-02-13T04:38:49;102533.03;;;5.58;100.00
55301;BME280;58302;51.446;-2.000;2023-02-13T04:41:14;102525.13;;;5.56;100.00
55301;BME280;58302;51.446;-2.000;2023-02-13T04:43:41;102525.47;;;5.53;100.00
55301;BME280;58302;51.446;-2.000;2023-02-13T04:46:07;102527.97;;;5.54;100.00
55301;BME280;58302;51.446;-2.000;2023-02-13T04:48:33;102523.44;;;5.55;100.00
55301;BME280;58302;51.446;-2.000;2023-02-13T04:50:59;102524.28;;;5.55;100.00
55301;BME280;58302;51.446;-2.000;2023-02-13T04:53:25;102531.69;;;5.53;100.00
55301;BME280;58302;51.446;-2.000;2023-02-13T04:55:51;102524.63;;;5.52;100.00
55301;BME280;58302;51.446;-2.000;2023-02-13T04:58:17;102520.63;;;5.48;100.00
55301;BME280;58302;51.446;-2.000;2023-02-13T05:00:43;102528.06;;;5.46;100.00
55301;BME280;58302;51.446;-2.000;2023-02-13T05:03:12;102518.94;;;5.47;100.00
55301;BME280;58302;51.446;-2.000;2023-02-13T05:05:38;102512.91;;;5.45;100.00
55301;BME280;58302;51.446;-2.000;2023-02-13T05:08:06;102514.28;;;5.41;100.00
55301;BME280;58302;51.446;-2.000;2023-02-13T05:10:33;102522.56;;;5.40;100.00
55301;BME280;58302;51.446;-2.000;2023-02-13T05:12:59;102514.81;;;5.37;100.00
55301;BME280;58302;51.446;-2.000;2023-02-13T05:15:25;102510.63;;;5.34;100.00
55301;BME280;58302;51.446;-2.000;2023-02-13T05:17:51;102513.97;;;5.36;100.00
55301;BME280;58302;51.446;-2.000;2023-02-13T05:20:17;102509.72;;;5.42;100.00
55301;BME280;58302;51.446;-2.000;2023-02-13T05:22:45;102503.13;;;5.44;100.00
55301;BME280;58302;51.446;-2.000;2023-02-13T05:25:30;102505.53;;;5.39;100.00
55301;BME280;58302;51.446;-2.000;2023-02-13T05:27:56;102505.69;;;5.38;100.00
55301;BME280;58302;51.446;-2.000;2023-02-13T05:30:23;102499.66;;;5.36;100.00
55301;BME280;58302;51.446;-2.000;2023-02-13T05:32:49;102496.13;;;5.35;100.00
55301;BME280;58302;51.446;-2.000;2023-02-13T05:35:17;102484.69;;;5.33;100.00
55301;BME280;58302;51.446;-2.000;2023-02-13T05:37:44;102492.06;;;5.39;100.00
55301;BME280;58302;51.446;-2.000;2023-02-13T05:40:11;102495.22;;;5.43;100.00
55301;BME280;58302;51.446;-2.000;2023-02-13T05:42:39;102500.97;;;5.40;100.00
55301;BME280;58302;51.446;-2.000;2023-02-13T05:45:05;102495.59;;;5.40;100.00
55301;BME280;58302;51.446;-2.000;2023-02-13T05:47:31;102487.66;;;5.38;100.00
55301;BME280;58302;51.446;-2.000;2023-02-13T05:49:57;102498.44;;;5.38;100.00
55301;BME280;58302;51.446;-2.000;2023-02-13T05:52:23;102499.97;;;5.41;100.00
55301;BME280;58302;51.446;-2.000;2023-02-13T05:54:49;102499.41;;;5.45;100.00
55301;BME280;58302;51.446;-2.000;2023-02-13T05:57:15;102498.03;;;5.49;100.00
55301;BME280;58302;51.446;-2.000;2023-02-13T05:59:41;102503.59;;;5.48;100.00
55301;BME280;58302;51.446;-2.000;2023-02-13T06:02:07;102499.22;;;5.47;100.00
55301;BME280;58302;51.446;-2.000;2023-02-13T06:04:33;102502.66;;;5.41;100.00
55301;BME280;58302;51.446;-2.000;2023-02-13T06:06:59;102495.09;;;5.36;100.00
55301;BME280;58302;51.446;-2.000;2023-02-13T06:09:25;102499.84;;;5.34;100.00
55301;BME280;58302;51.446;-2.000;2023-02-13T06:11:51;102496.97;;;5.36;100.00
55301;BME280;58302;51.446;-2.000;2023-02-13T06:14:17;102500.31;;;5.38;100.00
55301;BME280;58302;51.446;-2.000;2023-02-13T06:16:43;102491.22;;;5.39;100.00
55301;BME280;58302;51.446;-2.000;2023-02-13T06:19:09;102484.31;;;5.36;100.00
55301;BME280;58302;51.446;-2.000;2023-02-13T06:21:35;102491.38;;;5.37;100.00
55301;BME280;58302;51.446;-2.000;2023-02-13T06:24:06;102487.66;;;5.38;100.00
55301;BME280;58302;51.446;-2.000;2023-02-13T06:26:33;102484.41;;;5.43;100.00
55301;BME280;58302;51.446;-2.000;2023-02-13T06:28:59;102479.41;;;5.40;100.00
55301;BME280;58302;51.446;-2.000;2023-02-13T06:31:25;102483.97;;;5.39;100.00
55301;BME280;58302;51.446;-2.000;2023-02-13T06:33:51;102480.59;;;5.37;100.00
55301;BME280;58302;51.446;-2.000;2023-02-13T06:36:17;102474.56;;;5.35;100.00
55301;BME280;58302;51.446;-2.000;2023-02-13T06:38:43;102469.81;;;5.37;100.00
55301;BME280;58302;51.446;-2.000;2023-02-13T06:41:09;102470.34;;;5.33;100.00
55301;BME280;58302;51.446;-2.000;2023-02-13T06:43:35;102476.41;;;5.35;100.00
55301;BME280;58302;51.446;-2.000;2023-02-13T06:46:05;102476.13;;;5.29;100.00
55301;BME280;58302;51.446;-2.000;2023-02-13T06:48:31;102473.41;;;5.29;100.00
55301;BME280;58302;51.446;-2.000;2023-02-13T06:50:57;102477.16;;;5.28;100.00
55301;BME280;58302;51.446;-2.000;2023-02-13T06:53:23;102481.03;;;5.26;100.00
55301;BME280;58302;51.446;-2.000;2023-02-13T06:55:54;102474.59;;;5.27;100.00
55301;BME280;58302;51.446;-2.000;2023-02-13T06:58:21;102479.00;;;5.28;100.00
55301;BME280;58302;51.446;-2.000;2023-02-13T07:00:48;102487.25;;;5.26;100.00
55301;BME280;58302;51.446;-2.000;2023-02-13T07:03:17;102481.03;;;5.26;100.00
55301;BME280;58302;51.446;-2.000;2023-02-13T07:05:43;102486.41;;;5.26;100.00
55301;BME280;58302;51.446;-2.000;2023-02-13T07:08:11;102491.81;;;5.26;100.00
55301;BME280;58302;51.446;-2.000;2023-02-13T07:10:38;102491.66;;;5.27;100.00
55301;BME280;58302;51.446;-2.000;2023-02-13T07:13:04;102489.47;;;5.23;100.00
55301;BME280;58302;51.446;-2.000;2023-02-13T07:15:32;102492.53;;;5.20;100.00
55301;BME280;58302;51.446;-2.000;2023-02-13T07:17:58;102488.50;;;5.16;100.00
55301;BME280;58302;51.446;-2.000;2023-02-13T07:20:25;102491.38;;;5.14;100.00
55301;BME280;58302;51.446;-2.000;2023-02-13T07:22:51;102490.38;;;5.15;100.00
55301;BME280;58302;51.446;-2.000;2023-02-13T07:25:17;102493.91;;;5.16;100.00
55301;BME280;58302;51.446;-2.000;2023-02-13T07:27:43;102494.56;;;5.18;100.00
55301;BME280;58302;51.446;-2.000;2023-02-13T07:30:10;102488.50;;;5.16;100.00
55301;BME280;58302;51.446;-2.000;2023-02-13T07:32:36;102493.53;;;5.19;100.00
55301;BME280;58302;51.446;-2.000;2023-02-13T07:35:02;102491.19;;;5.16;100.00
55301;BME280;58302;51.446;-2.000;2023-02-13T07:37:30;102496.59;;;5.16;100.00
55301;BME280;58302;51.446;-2.000;2023-02-13T07:39:56;102491.03;;;5.17;100.00
55301;BME280;58302;51.446;-2.000;2023-02-13T07:42:22;102498.09;;;5.18;100.00
55301;BME280;58302;51.446;-2.000;2023-02-13T07:44:48;102498.59;;;5.22;100.00
55301;BME280;58302;51.446;-2.000;2023-02-13T07:47:14;102506.84;;;5.20;100.00
55301;BME280;58302;51.446;-2.000;2023-02-13T07:49:40;102500.59;;;5.20;100.00
55301;BME280;58302;51.446;-2.000;2023-02-13T07:52:06;102500.25;;;5.23;100.00
55301;BME280;58302;51.446;-2.000;2023-02-13T07:54:32;102504.63;;;5.24;100.00
55301;BME280;58302;51.446;-2.000;2023-02-13T07:56:58;102507.50;;;5.22;100.00
55301;BME280;58302;51.446;-2.000;2023-02-13T07:59:24;102506.94;;;5.27;100.00
55301;BME280;58302;51.446;-2.000;2023-02-13T08:01:50;102509.94;;;5.32;100.00
55301;BME280;58302;51.446;-2.000;2023-02-13T08:04:16;102511.66;;;5.33;100.00
55301;BME280;58302;51.446;-2.000;2023-02-13T08:06:42;102496.78;;;5.37;100.00
55301;BME280;58302;51.446;-2.000;2023-02-13T08:09:17;102499.13;;;5.40;100.00
55301;BME280;58302;51.446;-2.000;2023-02-13T08:12:04;102510.56;;;5.42;100.00
55301;BME280;58302;51.446;-2.000;2023-02-13T08:14:31;102503.13;;;5.44;100.00
55301;BME280;58302;51.446;-2.000;2023-02-13T08:16:58;102493.66;;;5.48;100.00
55301;BME280;58302;51.446;-2.000;2023-02-13T08:19:26;102493.31;;;5.51;100.00
55301;BME280;58302;51.446;-2.000;2023-02-13T08:21:52;102499.19;;;5.55;100.00
55301;BME280;58302;51.446;-2.000;2023-02-13T08:24:18;102499.00;;;5.57;100.00
55301;BME280;58302;51.446;-2.000;2023-02-13T08:26:44;102503.00;;;5.61;100.00
55301;BME280;58302;51.446;-2.000;2023-02-13T08:29:10;102503.28;;;5.66;100.00
55301;BME280;58302;51.446;-2.000;2023-02-13T08:31:37;102505.31;;;5.64;100.00
55301;BME280;58302;51.446;-2.000;2023-02-13T08:34:03;102499.38;;;5.68;100.00
55301;BME280;58302;51.446;-2.000;2023-02-13T08:36:30;102507.47;;;5.68;100.00
55301;BME280;58302;51.446;-2.000;2023-02-13T08:38:56;102504.41;;;5.71;100.00
55301;BME280;58302;51.446;-2.000;2023-02-13T08:41:22;102493.56;;;5.79;100.00
55301;BME280;58302;51.446;-2.000;2023-02-13T08:43:49;102502.13;;;5.83;100.00
55301;BME280;58302;51.446;-2.000;2023-02-13T08:46:18;102490.31;;;5.84;100.00
55301;BME280;58302;51.446;-2.000;2023-02-13T08:48:44;102486.47;;;5.78;100.00
55301;BME280;58302;51.446;-2.000;2023-02-13T08:51:12;102492.06;;;5.77;100.00
55301;BME280;58302;51.446;-2.000;2023-02-13T08:53:39;102495.50;;;5.86;100.00
55301;BME280;58302;51.446;-2.000;2023-02-13T08:56:08;102488.38;;;5.93;100.00
55301;BME280;58302;51.446;-2.000;2023-02-13T08:58:35;102500.69;;;5.95;100.00
55301;BME280;58302;51.446;-2.000;2023-02-13T09:01:04;102492.59;;;5.95;100.00
55301;BME280;58302;51.446;-2.000;2023-02-13T09:03:30;102487.19;;;5.95;100.00
55301;BME280;58302;51.446;-2.000;2023-02-13T09:06:00;102494.09;;;6.13;100.00
55301;BME280;58302;51.446;-2.000;2023-02-13T09:08:27;102488.41;;;6.22;100.00
55301;BME280;58302;51.446;-2.000;2023-02-13T09:11:01;102485.81;;;6.29;100.00
55301;BME280;58302;51.446;-2.000;2023-02-13T09:13:31;102488.41;;;6.22;100.00
55301;BME280;58302;51.446;-2.000;2023-02-13T09:16:03;102489.44;;;6.21;100.00
55301;BME280;58302;51.446;-2.000;2023-02-13T09:18:30;102485.44;;;6.32;100.00
55301;BME280;58302;51.446;-2.000;2023-02-13T09:21:01;102484.28;;;6.41;100.00
55301;BME280;58302;51.446;-2.000;2023-02-13T09:23:30;102475.34;;;6.41;100.00
55301;BME280;58302;51.446;-2.000;2023-02-13T09:26:01;102484.84;;;6.51;100.00
55301;BME280;58302;51.446;-2.000;2023-02-13T09:28:32;102483.72;;;6.60;100.00
55301;BME280;58302;51.446;-2.000;2023-02-13T09:30:58;102480.97;;;6.75;100.00
55301;BME280;58302;51.446;-2.000;2023-02-13T09:33:25;102476.59;;;6.74;100.00
55301;BME280;58302;51.446;-2.000;2023-02-13T09:35:51;102475.78;;;6.74;100.00
55301;BME280;58302;51.446;-2.000;2023-02-13T09:38:17;102476.03;;;6.79;100.00
55301;BME280;58302;51.446;-2.000;2023-02-13T09:40:51;102478.28;;;6.75;100.00
55301;BME280;58302;51.446;-2.000;2023-02-13T09:43:31;102475.84;;;6.80;100.00
55301;BME280;58302;51.446;-2.000;2023-02-13T09:46:10;102482.06;;;6.96;100.00
55301;BME280;58302;51.446;-2.000;2023-02-13T09:48:39;102484.66;;;7.04;100.00
55301;BME280;58302;51.446;-2.000;2023-02-13T09:51:09;102484.31;;;7.13;100.00
55301;BME280;58302;51.446;-2.000;2023-02-13T09:53:39;102477.19;;;7.06;100.00
55301;BME280;58302;51.446;-2.000;2023-02-13T09:56:31;102481.84;;;6.97;100.00
55301;BME280;58302;51.446;-2.000;2023-02-13T10:01:56;102486.31;;;7.05;100.00
55301;BME280;58302;51.446;-2.000;2023-02-13T10:07:29;102479.31;;;7.10;100.00
55301;BME280;58302;51.446;-2.000;2023-02-13T10:16:00;102466.69;;;7.18;100.00
55301;BME280;58302;51.446;-2.000;2023-02-13T10:18:40;102471.00;;;7.33;100.00
55301;BME280;58302;51.446;-2.000;2023-02-13T10:21:09;102484.97;;;7.58;100.00
55301;BME280;58302;51.446;-2.000;2023-02-13T10:23:40;102471.00;;;7.83;100.00
55301;BME280;58302;51.446;-2.000;2023-02-13T10:26:20;102471.19;;;7.81;100.00
55301;BME280;58302;51.446;-2.000;2023-02-13T10:29:01;102470.78;;;7.84;100.00
55301;BME280;58302;51.446;-2.000;2023-02-13T10:31:48;102474.03;;;8.01;100.00
55301;BME280;58302;51.446;-2.000;2023-02-13T10:34:19;102478.59;;;8.01;100.00
55301;BME280;58302;51.446;-2.000;2023-02-13T10:36:47;102464.19;;;7.93;100.00
55301;BME280;58302;51.446;-2.000;2023-02-13T10:41:53;102470.94;;;7.76;100.00
55301;BME280;58302;51.446;-2.000;2023-02-13T10:52:56;102471.47;;;7.93;100.00
55301;BME280;58302;51.446;-2.000;2023-02-13T10:58:08;102461.31;;;8.02;100.00
55301;BME280;58302;51.446;-2.000;2023-02-13T11:00:45;102463.47;;;8.13;100.00
55301;BME280;58302;51.446;-2.000;2023-02-13T11:03:24;102464.25;;;8.07;100.00
55301;BME280;58302;51.446;-2.000;2023-02-13T11:05:52;102455.34;;;8.13;100.00
55301;BME280;58302;51.446;-2.000;2023-02-13T11:08:47;102451.91;;;8.32;100.00
55301;BME280;58302;51.446;-2.000;2023-02-13T11:11:36;102457.22;;;8.47;100.00
55301;BME280;58302;51.446;-2.000;2023-02-13T11:14:09;102454.53;;;8.47;100.00
55301;BME280;58302;51.446;-2.000;2023-02-13T11:19:19;102454.19;;;8.70;100.00
55301;BME280;58302;51.446;-2.000;2023-02-13T11:21:52;102456.94;;;8.90;100.00
55301;BME280;58302;51.446;-2.000;2023-02-13T11:24:23;102440.31;;;9.13;100.00
55301;BME280;58302;51.446;-2.000;2023-02-13T11:26:59;102436.78;;;9.19;100.00
55301;BME280;58302;51.446;-2.000;2023-02-13T11:29:30;102442.44;;;9.57;100.00
55301;BME280;58302;51.446;-2.000;2023-02-13T11:32:22;102442.38;;;9.90;100.00
55301;BME280;58302;51.446;-2.000;2023-02-13T11:34:48;102431.38;;;10.81;100.00
55301;BME280;58302;51.446;-2.000;2023-02-13T11:39:47;102424.84;;;10.96;100.00
55301;BME280;58302;51.446;-2.000;2023-02-13T11:42:34;102412.69;;;10.60;100.00
55301;BME280;58302;51.446;-2.000;2023-02-13T11:45:04;102407.91;;;10.55;100.00
55301;BME280;58302;51.446;-2.000;2023-02-13T11:47:32;102411.88;;;10.91;100.00
55301;BME280;58302;51.446;-2.000;2023-02-13T11:49:59;102412.25;;;11.76;100.00
55301;BME280;58302;51.446;-2.000;2023-02-13T11:52:27;102410.63;;;11.69;100.00
55301;BME280;58302;51.446;-2.000;2023-02-13T11:54:56;102413.78;;;10.91;100.00
55301;BME280;58302;51.446;-2.000;2023-02-13T11:57:30;102405.91;;;10.31;100.00
55301;BME280;58302;51.446;-2.000;2023-02-13T11:59:58;102412.41;;;10.30;100.00
55301;BME280;58302;51.446;-2.000;2023-02-13T12:02:46;102404.91;;;10.25;100.00
55301;BME280;58302;51.446;-2.000;2023-02-13T12:05:23;102405.38;;;10.92;100.00
55301;BME280;58302;51.446;-2.000;2023-02-13T12:07:51;102403.91;;;11.46;100.00
55301;BME280;58302;51.446;-2.000;2023-02-13T12:10:21;102400.47;;;12.01;100.00
55301;BME280;58302;51.446;-2.000;2023-02-13T12:13:08;102395.22;;;12.36;100.00
55301;BME280;58302;51.446;-2.000;2023-02-13T12:15:38;102391.84;;;12.22;100.00
55301;BME280;58302;51.446;-2.000;2023-02-13T12:18:22;102389.13;;;12.52;100.00
55301;BME280;58302;51.446;-2.000;2023-02-13T12:23:53;102377.63;;;12.80;100.00
55301;BME280;58302;51.446;-2.000;2023-02-13T12:26:37;102374.78;;;12.87;100.00
55301;BME280;58302;51.446;-2.000;2023-02-13T12:29:38;102365.75;;;12.45;100.00
55301;BME280;58302;51.446;-2.000;2023-02-13T12:32:42;102372.38;;;12.79;100.00
55301;BME280;58302;51.446;-2.000;2023-02-13T12:46:48;102361.69;;;12.17;100.00
55301;BME280;58302;51.446;-2.000;2023-02-13T12:57:59;102343.41;;;11.88;100.00
55301;BME280;58302;51.446;-2.000;2023-02-13T13:08:45;102351.38;;;12.19;100.00
55301;BME280;58302;51.446;-2.000;2023-02-13T13:11:28;102339.94;;;12.29;100.00
55301;BME280;58302;51.446;-2.000;2023-02-13T13:19:29;102327.72;;;12.01;100.00
55301;BME280;58302;51.446;-2.000;2023-02-13T13:27:19;102311.78;;;12.47;100.00
55301;BME280;58302;51.446;-2.000;2023-02-13T13:29:52;102315.41;;;12.59;100.00
55301;BME280;58302;51.446;-2.000;2023-02-13T13:32:20;102316.31;;;12.95;100.00
55301;BME280;58302;51.446;-2.000;2023-02-13T13:34:46;102301.53;;;13.26;100.00
55301;BME280;58302;51.446;-2.000;2023-02-13T13:50:56;102293.66;;;13.06;100.00
55301;BME280;58302;51.446;-2.000;2023-02-13T13:53:23;102295.53;;;12.93;100.00
55301;BME280;58302;51.446;-2.000;2023-02-13T13:58:41;102289.13;;;13.11;100.00
55301;BME280;58302;51.446;-2.000;2023-02-13T14:03:47;102288.88;;;13.71;100.00
55301;BME280;58302;51.446;-2.000;2023-02-13T14:06:16;102282.22;;;13.79;100.00
55301;BME280;58302;51.446;-2.000;2023-02-13T14:11:35;102269.19;;;13.58;100.00
55301;BME280;58302;51.446;-2.000;2023-02-13T14:16:57;102267.31;;;13.47;100.00
55301;BME280;58302;51.446;-2.000;2023-02-13T14:19:38;102265.75;;;13.51;100.00
55301;BME280;58302;51.446;-2.000;2023-02-13T14:24:50;102256.28;;;13.41;100.00
55301;BME280;58302;51.446;-2.000;2023-02-13T14:27:23;102251.75;;;13.00;100.00
55301;BME280;58302;51.446;-2.000;2023-02-13T14:29:50;102254.59;;;12.82;100.00
55301;BME280;58302;51.446;-2.000;2023-02-13T14:34:51;102246.84;;;12.55;100.00
55301;BME280;58302;51.446;-2.000;2023-02-13T14:38:19;102243.53;;;12.11;100.00
55301;BME280;58302;51.446;-2.000;2023-02-13T14:43:44;102239.56;;;11.77;100.00
55301;BME280;58302;51.446;-2.000;2023-02-13T14:49:00;102240.72;;;11.51;100.00
55301;BME280;58302;51.446;-2.000;2023-02-13T14:54:04;102222.09;;;11.12;100.00
55301;BME280;58302;51.446;-2.000;2023-02-13T14:56:31;102228.22;;;11.07;100.00
55301;BME280;58302;51.446;-2.000;2023-02-13T14:59:11;102221.47;;;11.09;100.00
55301;BME280;58302;51.446;-2.000;2023-02-13T15:01:46;102236.22;;;11.02;100.00
55301;BME280;58302;51.446;-2.000;2023-02-13T15:06:43;102231.25;;;10.99;100.00
55301;BME280;58302;51.446;-2.000;2023-02-13T15:09:18;102223.94;;;10.93;100.00
55301;BME280;58302;51.446;-2.000;2023-02-13T15:11:46;102218.88;;;10.78;100.00
55301;BME280;58302;51.446;-2.000;2023-02-13T15:14:22;102217.47;;;10.69;100.00
55301;BME280;58302;51.446;-2.000;2023-02-13T15:17:04;102213.16;;;10.61;100.00
55301;BME280;58302;51.446;-2.000;2023-02-13T15:19:31;102213.00;;;10.56;100.00
55301;BME280;58302;51.446;-2.000;2023-02-13T15:22:01;102205.94;;;10.48;100.00
55301;BME280;58302;51.446;-2.000;2023-02-13T15:24:34;102210.78;;;10.46;100.00
55301;BME280;58302;51.446;-2.000;2023-02-13T15:27:04;102213.09;;;10.43;100.00
55301;BME280;58302;51.446;-2.000;2023-02-13T15:29:30;102208.75;;;10.35;100.00
55301;BME280;58302;51.446;-2.000;2023-02-13T15:31:57;102206.31;;;10.27;100.00
55301;BME280;58302;51.446;-2.000;2023-02-13T15:34:27;102210.47;;;10.29;100.00
55301;BME280;58302;51.446;-2.000;2023-02-13T15:36:54;102206.31;;;10.27;100.00